sensor_id;sensor_type;location;lat;lon;timestamp;P1;durP1;ratioP1;P2;durP2;ratioP2
75135;SDS011;63707;52.212;9.540;2023-05-07T00:02:10;61.42;;;34.05;;
75135;SDS011;63707;52.212;9.540;2023-05-07T00:04:35;63.67;;;35.83;;
75135;SDS011;63707;52.212;9.540;2023-05-07T00:07:02;61.72;;;34.13;;
75135;SDS011;63707;52.212;9.540;2023-05-07T00:09:28;64.90;;;35.58;;
75135;SDS011;63707;52.212;9.540;2023-05-07T00:11:54;66.68;;;34.65;;
75135;SDS011;63707;52.212;9.540;2023-05-07T00:14:19;59.47;;;33.00;;
75135;SDS011;63707;52.212;9.540;2023-05-07T00:16:47;65.00;;;33.50;;
75135;SDS011;63707;52.212;9.540;2023-05-07T00:19:12;61.38;;;33.40;;
75135;SDS011;63707;52.212;9.540;2023-05-07T00:21:38;61.47;;;34.95;;
75135;SDS011;63707;52.212;9.540;2023-05-07T00:24:03;64.22;;;34.10;;
75135;SDS011;63707;52.212;9.540;2023-05-07T00:26:29;73.43;;;37.78;;
75135;SDS011;63707;52.212;9.540;2023-05-07T00:28:55;66.28;;;36.58;;
75135;SDS011;63707;52.212;9.540;2023-05-07T00:31:20;76.38;;;38.45;;
75135;SDS011;63707;52.212;9.540;2023-05-07T00:33:47;76.97;;;39.45;;
75135;SDS011;63707;52.212;9.540;2023-05-07T00:36:13;73.97;;;38.83;;
75135;SDS011;63707;52.212;9.540;2023-05-07T00:38:38;77.15;;;38.53;;
75135;SDS011;63707;52.212;9.540;2023-05-07T00:41:04;74.65;;;39.58;;
75135;SDS011;63707;52.212;9.540;2023-05-07T00:43:30;80.68;;;39.80;;
75135;SDS011;63707;52.212;9.540;2023-05-07T00:45:57;74.22;;;38.20;;
75135;SDS011;63707;52.212;9.540;2023-05-07T00:48:22;66.32;;;33.80;;
75135;SDS011;63707;52.212;9.540;2023-05-07T00:50:50;73.85;;;37.50;;
75135;SDS011;63707;52.212;9.540;2023-05-07T00:53:16;72.05;;;36.50;;
75135;SDS011;63707;52.212;9.540;2023-05-07T00:55:41;80.47;;;38.47;;
75135;SDS011;63707;52.212;9.540;2023-05-07T00:58:07;81.50;;;37.95;;
75135;SDS011;63707;52.212;9.540;2023-05-07T01:00:33;77.80;;;38.10;;
75135;SDS011;63707;52.212;9.540;2023-05-07T01:02:59;78.88;;;38.63;;
75135;SDS011;63707;52.212;9.540;2023-05-07T01:05:24;80.80;;;37.30;;
75135;SDS011;63707;52.212;9.540;2023-05-07T01:07:53;79.47;;;37.67;;
75135;SDS011;63707;52.212;9.540;2023-05-07T01:10:21;77.30;;;37.00;;
75135;SDS011;63707;52.212;9.540;2023-05-07T01:12:47;81.13;;;37.92;;
75135;SDS011;63707;52.212;9.540;2023-05-07T01:15:15;84.72;;;38.70;;
75135;SDS011;63707;52.212;9.540;2023-05-07T01:17:41;81.85;;;38.20;;
75135;SDS011;63707;52.212;9.540;2023-05-07T01:20:08;80.68;;;35.72;;
75135;SDS011;63707;52.212;9.540;2023-05-07T01:22:36;81.95;;;36.78;;
75135;SDS011;63707;52.212;9.540;2023-05-07T01:25:03;78.07;;;35.83;;
75135;SDS011;63707;52.212;9.540;2023-05-07T01:27:30;77.47;;;36.22;;
75135;SDS011;63707;52.212;9.540;2023-05-07T01:29:55;78.43;;;35.38;;
75135;SDS011;63707;52.212;9.540;2023-05-07T01:32:21;83.22;;;36.90;;
75135;SDS011;63707;52.212;9.540;2023-05-07T01:34:52;84.72;;;37.28;;
75135;SDS011;63707;52.212;9.540;2023-05-07T01:37:19;84.28;;;36.03;;
75135;SDS011;63707;52.212;9.540;2023-05-07T01:39:47;82.40;;;36.78;;
75135;SDS011;63707;52.212;9.540;2023-05-07T01:42:13;74.53;;;33.47;;
75135;SDS011;63707;52.212;9.540;2023-05-07T01:44:38;79.47;;;35.10;;
75135;SDS011;63707;52.212;9.540;2023-05-07T01:47:04;80.75;;;35.28;;
75135;SDS011;63707;52.212;9.540;2023-05-07T01:49:31;74.72;;;35.05;;
75135;SDS011;63707;52.212;9.540;2023-05-07T01:51:56;82.15;;;35.13;;
75135;SDS011;63707;52.212;9.540;2023-05-07T01:54:24;80.45;;;36.08;;
75135;SDS011;63707;52.212;9.540;2023-05-07T01:56:55;85.75;;;35.40;;
75135;SDS011;63707;52.212;9.540;2023-05-07T01:59:21;81.03;;;36.28;;
75135;SDS011;63707;52.212;9.540;2023-05-07T02:01:47;84.80;;;35.88;;
75135;SDS011;63707;52.212;9.540;2023-05-07T02:04:12;82.30;;;36.33;;
75135;SDS011;63707;52.212;9.540;2023-05-07T02:06:38;81.93;;;35.30;;
75135;SDS011;63707;52.212;9.540;2023-05-07T02:09:04;85.50;;;36.42;;
75135;SDS011;63707;52.212;9.540;2023-05-07T02:11:30;78.45;;;34.22;;
75135;SDS011;63707;52.212;9.540;2023-05-07T02:13:56;86.93;;;36.40;;
75135;SDS011;63707;52.212;9.540;2023-05-07T02:16:22;82.47;;;35.00;;
75135;SDS011;63707;52.212;9.540;2023-05-07T02:18:48;81.07;;;35.10;;
75135;SDS011;63707;52.212;9.540;2023-05-07T02:21:14;79.50;;;34.28;;
75135;SDS011;63707;52.212;9.540;2023-05-07T02:23:39;77.43;;;32.20;;
75135;SDS011;63707;52.212;9.540;2023-05-07T02:26:05;81.07;;;33.53;;
75135;SDS011;63707;52.212;9.540;2023-05-07T02:28:31;80.25;;;32.78;;
75135;SDS011;63707;52.212;9.540;2023-05-07T02:30:57;79.32;;;34.72;;
75135;SDS011;63707;52.212;9.540;2023-05-07T02:33:24;73.53;;;33.65;;
75135;SDS011;63707;52.212;9.540;2023-05-07T02:35:50;74.45;;;32.15;;
75135;SDS011;63707;52.212;9.540;2023-05-07T02:38:16;71.95;;;31.35;;
75135;SDS011;63707;52.212;9.540;2023-05-07T02:40:42;68.65;;;31.40;;
75135;SDS011;63707;52.212;9.540;2023-05-07T02:43:07;64.05;;;29.65;;
75135;SDS011;63707;52.212;9.540;2023-05-07T02:45:33;62.85;;;28.75;;
75135;SDS011;63707;52.212;9.540;2023-05-07T02:48:00;62.55;;;27.85;;
75135;SDS011;63707;52.212;9.540;2023-05-07T02:50:25;60.67;;;27.30;;
75135;SDS011;63707;52.212;9.540;2023-05-07T02:52:52;64.20;;;27.52;;
75135;SDS011;63707;52.212;9.540;2023-05-07T02:55:17;57.40;;;26.17;;
75135;SDS011;63707;52.212;9.540;2023-05-07T02:57:43;53.22;;;25.42;;
75135;SDS011;63707;52.212;9.540;2023-05-07T03:00:13;52.88;;;25.77;;
75135;SDS011;63707;52.212;9.540;2023-05-07T03:02:39;54.83;;;26.92;;
75135;SDS011;63707;52.212;9.540;2023-05-07T03:05:07;53.28;;;24.77;;
75135;SDS011;63707;52.212;9.540;2023-05-07T03:07:33;50.78;;;24.67;;
75135;SDS011;63707;52.212;9.540;2023-05-07T03:09:59;50.45;;;25.38;;
75135;SDS011;63707;52.212;9.540;2023-05-07T03:12:24;49.72;;;24.52;;
75135;SDS011;63707;52.212;9.540;2023-05-07T03:14:50;47.60;;;23.30;;
75135;SDS011;63707;52.212;9.540;2023-05-07T03:17:15;48.80;;;23.45;;
75135;SDS011;63707;52.212;9.540;2023-05-07T03:19:41;47.42;;;24.60;;
75135;SDS011;63707;52.212;9.540;2023-05-07T03:22:08;48.13;;;23.05;;
75135;SDS011;63707;52.212;9.540;2023-05-07T03:24:33;48.58;;;23.73;;
75135;SDS011;63707;52.212;9.540;2023-05-07T03:26:59;47.22;;;23.50;;
75135;SDS011;63707;52.212;9.540;2023-05-07T03:29:26;46.55;;;23.58;;
75135;SDS011;63707;52.212;9.540;2023-05-07T03:31:51;48.05;;;22.88;;
75135;SDS011;63707;52.212;9.540;2023-05-07T03:34:17;42.15;;;21.52;;
75135;SDS011;63707;52.212;9.540;2023-05-07T03:36:46;42.05;;;20.73;;
75135;SDS011;63707;52.212;9.540;2023-05-07T03:39:13;43.30;;;22.63;;
75135;SDS011;63707;52.212;9.540;2023-05-07T03:41:39;38.20;;;19.88;;
75135;SDS011;63707;52.212;9.540;2023-05-07T03:44:05;44.95;;;21.38;;
75135;SDS011;63707;52.212;9.540;2023-05-07T03:46:31;37.38;;;19.73;;
75135;SDS011;63707;52.212;9.540;2023-05-07T03:48:57;37.85;;;20.77;;
75135;SDS011;63707;52.212;9.540;2023-05-07T03:51:23;39.47;;;21.70;;
75135;SDS011;63707;52.212;9.540;2023-05-07T03:53:48;41.35;;;21.40;;
75135;SDS011;63707;52.212;9.540;2023-05-07T03:56:15;39.35;;;21.00;;
75135;SDS011;63707;52.212;9.540;2023-05-07T03:58:41;40.53;;;22.15;;
75135;SDS011;63707;52.212;9.540;2023-05-07T04:01:06;38.20;;;21.05;;
75135;SDS011;63707;52.212;9.540;2023-05-07T04:03:32;46.40;;;23.13;;
75135;SDS011;63707;52.212;9.540;2023-05-07T04:05:57;37.97;;;20.52;;
75135;SDS011;63707;52.212;9.540;2023-05-07T04:08:23;40.83;;;20.90;;
75135;SDS011;63707;52.212;9.540;2023-05-07T04:10:53;38.63;;;21.52;;
75135;SDS011;63707;52.212;9.540;2023-05-07T04:13:21;41.22;;;22.27;;
75135;SDS011;63707;52.212;9.540;2023-05-07T04:15:46;42.05;;;21.55;;
75135;SDS011;63707;52.212;9.540;2023-05-07T04:18:13;39.65;;;21.80;;
75135;SDS011;63707;52.212;9.540;2023-05-07T04:20:39;42.95;;;23.35;;
75135;SDS011;63707;52.212;9.540;2023-05-07T04:23:05;41.97;;;22.48;;
75135;SDS011;63707;52.212;9.540;2023-05-07T04:25:30;42.70;;;22.88;;
75135;SDS011;63707;52.212;9.540;2023-05-07T04:27:56;41.83;;;21.98;;
75135;SDS011;63707;52.212;9.540;2023-05-07T04:30:23;41.45;;;22.63;;
75135;SDS011;63707;52.212;9.540;2023-05-07T04:32:48;41.95;;;21.83;;
75135;SDS011;63707;52.212;9.540;2023-05-07T04:35:14;44.45;;;21.67;;
75135;SDS011;63707;52.212;9.540;2023-05-07T04:37:39;39.65;;;22.00;;
75135;SDS011;63707;52.212;9.540;2023-05-07T04:40:05;40.53;;;20.98;;
75135;SDS011;63707;52.212;9.540;2023-05-07T04:42:32;36.50;;;21.27;;
75135;SDS011;63707;52.212;9.540;2023-05-07T04:44:57;37.63;;;20.05;;
75135;SDS011;63707;52.212;9.540;2023-05-07T04:47:24;38.47;;;20.08;;
75135;SDS011;63707;52.212;9.540;2023-05-07T04:49:50;36.15;;;19.90;;
75135;SDS011;63707;52.212;9.540;2023-05-07T04:52:15;37.72;;;19.75;;
75135;SDS011;63707;52.212;9.540;2023-05-07T04:54:41;38.47;;;20.95;;
75135;SDS011;63707;52.212;9.540;2023-05-07T04:57:07;40.17;;;20.00;;
75135;SDS011;63707;52.212;9.540;2023-05-07T04:59:33;37.42;;;21.15;;
75135;SDS011;63707;52.212;9.540;2023-05-07T05:01:58;39.38;;;20.35;;
75135;SDS011;63707;52.212;9.540;2023-05-07T05:04:25;36.40;;;19.13;;
75135;SDS011;63707;52.212;9.540;2023-05-07T05:06:51;40.63;;;20.05;;
75135;SDS011;63707;52.212;9.540;2023-05-07T05:09:16;35.45;;;18.70;;
75135;SDS011;63707;52.212;9.540;2023-05-07T05:11:42;37.70;;;18.90;;
75135;SDS011;63707;52.212;9.540;2023-05-07T05:14:07;35.10;;;18.02;;
75135;SDS011;63707;52.212;9.540;2023-05-07T05:16:33;36.20;;;20.02;;
75135;SDS011;63707;52.212;9.540;2023-05-07T05:18:59;34.15;;;18.50;;
75135;SDS011;63707;52.212;9.540;2023-05-07T05:21:26;38.45;;;19.30;;
75135;SDS011;63707;52.212;9.540;2023-05-07T05:23:51;35.97;;;19.00;;
75135;SDS011;63707;52.212;9.540;2023-05-07T05:26:17;34.40;;;18.75;;
75135;SDS011;63707;52.212;9.540;2023-05-07T05:28:42;34.47;;;18.92;;
75135;SDS011;63707;52.212;9.540;2023-05-07T05:31:08;36.22;;;19.27;;
75135;SDS011;63707;52.212;9.540;2023-05-07T05:33:33;37.70;;;18.27;;
75135;SDS011;63707;52.212;9.540;2023-05-07T05:35:59;33.33;;;17.60;;
75135;SDS011;63707;52.212;9.540;2023-05-07T05:38:26;35.35;;;17.33;;
75135;SDS011;63707;52.212;9.540;2023-05-07T05:40:51;31.25;;;17.27;;
75135;SDS011;63707;52.212;9.540;2023-05-07T05:43:17;31.90;;;16.92;;
75135;SDS011;63707;52.212;9.540;2023-05-07T05:45:42;31.98;;;16.80;;
75135;SDS011;63707;52.212;9.540;2023-05-07T05:48:08;36.08;;;18.08;;
75135;SDS011;63707;52.212;9.540;2023-05-07T05:50:33;32.08;;;17.17;;
75135;SDS011;63707;52.212;9.540;2023-05-07T05:53:00;28.92;;;15.75;;
75135;SDS011;63707;52.212;9.540;2023-05-07T05:55:27;32.03;;;16.27;;
75135;SDS011;63707;52.212;9.540;2023-05-07T05:57:53;30.85;;;16.52;;
75135;SDS011;63707;52.212;9.540;2023-05-07T06:00:19;34.80;;;16.65;;
75135;SDS011;63707;52.212;9.540;2023-05-07T06:02:47;29.23;;;16.35;;
75135;SDS011;63707;52.212;9.540;2023-05-07T06:05:12;31.48;;;16.30;;
75135;SDS011;63707;52.212;9.540;2023-05-07T06:07:38;27.30;;;14.88;;
75135;SDS011;63707;52.212;9.540;2023-05-07T06:10:04;28.90;;;15.15;;
75135;SDS011;63707;52.212;9.540;2023-05-07T06:12:31;32.15;;;16.17;;
75135;SDS011;63707;52.212;9.540;2023-05-07T06:14:57;30.90;;;16.33;;
75135;SDS011;63707;52.212;9.540;2023-05-07T06:17:23;31.80;;;16.40;;
75135;SDS011;63707;52.212;9.540;2023-05-07T06:19:48;28.23;;;15.57;;
75135;SDS011;63707;52.212;9.540;2023-05-07T06:22:13;30.58;;;16.48;;
75135;SDS011;63707;52.212;9.540;2023-05-07T06:24:39;26.48;;;15.00;;
75135;SDS011;63707;52.212;9.540;2023-05-07T06:27:04;26.55;;;14.82;;
75135;SDS011;63707;52.212;9.540;2023-05-07T06:29:31;26.85;;;14.88;;
75135;SDS011;63707;52.212;9.540;2023-05-07T06:32:05;26.63;;;15.30;;
75135;SDS011;63707;52.212;9.540;2023-05-07T06:34:31;26.90;;;14.80;;
75135;SDS011;63707;52.212;9.540;2023-05-07T06:36:57;26.75;;;14.65;;
75135;SDS011;63707;52.212;9.540;2023-05-07T06:39:23;27.75;;;14.27;;
75135;SDS011;63707;52.212;9.540;2023-05-07T06:41:48;24.75;;;14.68;;
75135;SDS011;63707;52.212;9.540;2023-05-07T06:44:14;21.10;;;12.70;;
75135;SDS011;63707;52.212;9.540;2023-05-07T06:46:41;22.60;;;13.00;;
75135;SDS011;63707;52.212;9.540;2023-05-07T06:49:06;25.15;;;14.25;;
75135;SDS011;63707;52.212;9.540;2023-05-07T06:51:32;22.00;;;13.43;;
75135;SDS011;63707;52.212;9.540;2023-05-07T06:53:57;24.63;;;13.10;;
75135;SDS011;63707;52.212;9.540;2023-05-07T06:56:23;23.38;;;13.45;;
75135;SDS011;63707;52.212;9.540;2023-05-07T06:58:49;23.48;;;13.02;;
75135;SDS011;63707;52.212;9.540;2023-05-07T07:01:14;24.30;;;13.38;;
75135;SDS011;63707;52.212;9.540;2023-05-07T07:03:41;20.80;;;12.05;;
75135;SDS011;63707;52.212;9.540;2023-05-07T07:06:07;24.48;;;13.55;;
75135;SDS011;63707;52.212;9.540;2023-05-07T07:08:32;19.60;;;12.25;;
75135;SDS011;63707;52.212;9.540;2023-05-07T07:10:59;23.10;;;12.90;;
75135;SDS011;63707;52.212;9.540;2023-05-07T07:13:24;22.90;;;13.30;;
75135;SDS011;63707;52.212;9.540;2023-05-07T07:15:51;19.88;;;11.80;;
75135;SDS011;63707;52.212;9.540;2023-05-07T07:18:16;22.05;;;12.27;;
75135;SDS011;63707;52.212;9.540;2023-05-07T07:20:43;20.67;;;12.60;;
75135;SDS011;63707;52.212;9.540;2023-05-07T07:23:09;23.02;;;13.38;;
75135;SDS011;63707;52.212;9.540;2023-05-07T07:25:35;19.92;;;11.95;;
75135;SDS011;63707;52.212;9.540;2023-05-07T07:28:00;20.40;;;11.60;;
75135;SDS011;63707;52.212;9.540;2023-05-07T07:30:26;18.83;;;11.68;;
75135;SDS011;63707;52.212;9.540;2023-05-07T07:32:51;21.35;;;12.45;;
75135;SDS011;63707;52.212;9.540;2023-05-07T07:35:17;21.45;;;12.02;;
75135;SDS011;63707;52.212;9.540;2023-05-07T07:37:44;21.25;;;11.35;;
75135;SDS011;63707;52.212;9.540;2023-05-07T07:40:10;21.23;;;12.25;;
75135;SDS011;63707;52.212;9.540;2023-05-07T07:42:37;17.15;;;11.13;;
75135;SDS011;63707;52.212;9.540;2023-05-07T07:45:02;20.08;;;11.75;;
75135;SDS011;63707;52.212;9.540;2023-05-07T07:47:29;21.92;;;11.80;;
75135;SDS011;63707;52.212;9.540;2023-05-07T07:49:54;17.42;;;10.63;;
75135;SDS011;63707;52.212;9.540;2023-05-07T07:52:20;17.67;;;10.45;;
75135;SDS011;63707;52.212;9.540;2023-05-07T07:54:47;17.83;;;10.75;;
75135;SDS011;63707;52.212;9.540;2023-05-07T07:57:12;18.20;;;10.88;;
75135;SDS011;63707;52.212;9.540;2023-05-07T07:59:38;16.98;;;11.07;;
75135;SDS011;63707;52.212;9.540;2023-05-07T08:02:04;17.67;;;10.50;;
75135;SDS011;63707;52.212;9.540;2023-05-07T08:04:30;17.23;;;9.73;;
75135;SDS011;63707;52.212;9.540;2023-05-07T08:06:58;16.48;;;10.38;;
75135;SDS011;63707;52.212;9.540;2023-05-07T08:09:23;17.98;;;10.80;;
75135;SDS011;63707;52.212;9.540;2023-05-07T08:11:50;16.00;;;10.15;;
75135;SDS011;63707;52.212;9.540;2023-05-07T08:14:16;18.20;;;10.98;;
75135;SDS011;63707;52.212;9.540;2023-05-07T08:16:41;19.35;;;10.60;;
75135;SDS011;63707;52.212;9.540;2023-05-07T08:19:06;17.35;;;10.40;;
75135;SDS011;63707;52.212;9.540;2023-05-07T08:21:32;17.77;;;10.20;;
75135;SDS011;63707;52.212;9.540;2023-05-07T08:23:58;19.25;;;10.73;;
75135;SDS011;63707;52.212;9.540;2023-05-07T08:26:23;16.30;;;10.18;;
75135;SDS011;63707;52.212;9.540;2023-05-07T08:28:50;15.80;;;9.75;;
75135;SDS011;63707;52.212;9.540;2023-05-07T08:31:15;14.27;;;9.40;;
75135;SDS011;63707;52.212;9.540;2023-05-07T08:33:41;16.58;;;10.00;;
75135;SDS011;63707;52.212;9.540;2023-05-07T08:36:07;16.50;;;10.13;;
75135;SDS011;63707;52.212;9.540;2023-05-07T08:38:32;17.58;;;9.73;;
75135;SDS011;63707;52.212;9.540;2023-05-07T08:40:58;16.25;;;9.85;;
75135;SDS011;63707;52.212;9.540;2023-05-07T08:43:23;14.75;;;9.70;;
75135;SDS011;63707;52.212;9.540;2023-05-07T08:45:53;16.45;;;10.52;;
75135;SDS011;63707;52.212;9.540;2023-05-07T08:48:21;16.10;;;9.88;;
75135;SDS011;63707;52.212;9.540;2023-05-07T08:50:50;15.60;;;10.57;;
75135;SDS011;63707;52.212;9.540;2023-05-07T08:53:16;15.68;;;10.43;;
75135;SDS011;63707;52.212;9.540;2023-05-07T08:55:42;20.67;;;11.23;;
75135;SDS011;63707;52.212;9.540;2023-05-07T08:58:08;16.60;;;10.55;;
75135;SDS011;63707;52.212;9.540;2023-05-07T09:00:33;17.42;;;11.13;;
75135;SDS011;63707;52.212;9.540;2023-05-07T09:03:02;18.13;;;10.90;;
75135;SDS011;63707;52.212;9.540;2023-05-07T09:05:28;16.75;;;11.02;;
75135;SDS011;63707;52.212;9.540;2023-05-07T09:07:53;17.33;;;11.45;;
75135;SDS011;63707;52.212;9.540;2023-05-07T09:10:20;19.88;;;11.95;;
75135;SDS011;63707;52.212;9.540;2023-05-07T09:12:46;20.27;;;12.82;;
75135;SDS011;63707;52.212;9.540;2023-05-07T09:15:12;20.45;;;12.90;;
75135;SDS011;63707;52.212;9.540;2023-05-07T09:17:38;19.75;;;13.35;;
75135;SDS011;63707;52.212;9.540;2023-05-07T09:20:05;21.27;;;13.35;;
75135;SDS011;63707;52.212;9.540;2023-05-07T09:22:31;19.77;;;12.18;;
75135;SDS011;63707;52.212;9.540;2023-05-07T09:24:57;22.90;;;12.93;;
75135;SDS011;63707;52.212;9.540;2023-05-07T09:27:23;22.85;;;14.02;;
75135;SDS011;63707;52.212;9.540;2023-05-07T09:29:48;20.23;;;13.45;;
75135;SDS011;63707;52.212;9.540;2023-05-07T09:32:14;20.77;;;12.90;;
75135;SDS011;63707;52.212;9.540;2023-05-07T09:34:40;23.98;;;12.73;;
75135;SDS011;63707;52.212;9.540;2023-05-07T09:37:07;21.60;;;12.98;;
75135;SDS011;63707;52.212;9.540;2023-05-07T09:39:39;21.08;;;13.40;;
75135;SDS011;63707;52.212;9.540;2023-05-07T09:42:06;19.33;;;12.85;;
75135;SDS011;63707;52.212;9.540;2023-05-07T09:44:31;22.77;;;13.00;;
75135;SDS011;63707;52.212;9.540;2023-05-07T09:46:57;20.52;;;12.98;;
75135;SDS011;63707;52.212;9.540;2023-05-07T09:49:25;21.65;;;13.23;;
75135;SDS011;63707;52.212;9.540;2023-05-07T09:51:57;17.92;;;11.77;;
75135;SDS011;63707;52.212;9.540;2023-05-07T09:54:26;19.42;;;12.38;;
75135;SDS011;63707;52.212;9.540;2023-05-07T09:56:55;19.23;;;12.13;;
75135;SDS011;63707;52.212;9.540;2023-05-07T09:59:22;19.95;;;12.63;;
75135;SDS011;63707;52.212;9.540;2023-05-07T10:01:48;17.67;;;12.10;;
75135;SDS011;63707;52.212;9.540;2023-05-07T10:04:14;18.65;;;11.70;;
75135;SDS011;63707;52.212;9.540;2023-05-07T10:06:40;19.05;;;11.73;;
75135;SDS011;63707;52.212;9.540;2023-05-07T10:09:06;18.80;;;11.70;;
75135;SDS011;63707;52.212;9.540;2023-05-07T10:11:33;17.85;;;11.25;;
75135;SDS011;63707;52.212;9.540;2023-05-07T10:14:00;17.95;;;11.15;;
75135;SDS011;63707;52.212;9.540;2023-05-07T10:16:31;18.90;;;11.75;;
75135;SDS011;63707;52.212;9.540;2023-05-07T10:19:01;18.02;;;11.27;;
75135;SDS011;63707;52.212;9.540;2023-05-07T10:21:27;18.27;;;11.57;;
75135;SDS011;63707;52.212;9.540;2023-05-07T10:23:57;18.27;;;11.90;;
75135;SDS011;63707;52.212;9.540;2023-05-07T10:26:25;16.30;;;10.35;;
75135;SDS011;63707;52.212;9.540;2023-05-07T10:28:56;15.57;;;11.20;;
75135;SDS011;63707;52.212;9.540;2023-05-07T10:31:32;16.02;;;11.02;;
75135;SDS011;63707;52.212;9.540;2023-05-07T10:34:14;16.00;;;11.15;;
75135;SDS011;63707;52.212;9.540;2023-05-07T10:36:45;16.10;;;11.02;;
75135;SDS011;63707;52.212;9.540;2023-05-07T10:39:12;18.98;;;12.52;;
75135;SDS011;63707;52.212;9.540;2023-05-07T10:41:38;17.67;;;12.30;;
75135;SDS011;63707;52.212;9.540;2023-05-07T10:44:05;17.95;;;12.60;;
75135;SDS011;63707;52.212;9.540;2023-05-07T10:46:31;18.50;;;13.20;;
75135;SDS011;63707;52.212;9.540;2023-05-07T10:49:06;17.88;;;13.45;;
75135;SDS011;63707;52.212;9.540;2023-05-07T10:51:33;20.27;;;13.65;;
75135;SDS011;63707;52.212;9.540;2023-05-07T10:54:18;19.15;;;13.43;;
75135;SDS011;63707;52.212;9.540;2023-05-07T10:56:44;20.45;;;13.90;;
75135;SDS011;63707;52.212;9.540;2023-05-07T11:01:57;22.38;;;15.75;;
75135;SDS011;63707;52.212;9.540;2023-05-07T11:04:24;23.00;;;15.35;;
75135;SDS011;63707;52.212;9.540;2023-05-07T11:07:14;22.67;;;14.73;;
75135;SDS011;63707;52.212;9.540;2023-05-07T11:10:00;21.52;;;14.80;;
75135;SDS011;63707;52.212;9.540;2023-05-07T11:12:47;21.42;;;14.70;;
75135;SDS011;63707;52.212;9.540;2023-05-07T11:15:37;20.00;;;14.35;;
75135;SDS011;63707;52.212;9.540;2023-05-07T11:18:08;22.20;;;15.15;;
75135;SDS011;63707;52.212;9.540;2023-05-07T11:20:47;20.92;;;14.15;;
75135;SDS011;63707;52.212;9.540;2023-05-07T11:26:16;21.02;;;14.70;;
75135;SDS011;63707;52.212;9.540;2023-05-07T11:28:44;21.77;;;14.70;;
75135;SDS011;63707;52.212;9.540;2023-05-07T11:31:11;21.10;;;14.20;;
75135;SDS011;63707;52.212;9.540;2023-05-07T11:33:37;19.13;;;13.73;;
75135;SDS011;63707;52.212;9.540;2023-05-07T11:36:03;18.00;;;13.38;;
75135;SDS011;63707;52.212;9.540;2023-05-07T11:38:30;19.50;;;13.65;;
75135;SDS011;63707;52.212;9.540;2023-05-07T11:40:59;17.92;;;13.50;;
75135;SDS011;63707;52.212;9.540;2023-05-07T11:43:26;19.73;;;13.35;;
75135;SDS011;63707;52.212;9.540;2023-05-07T11:45:51;18.15;;;13.45;;
75135;SDS011;63707;52.212;9.540;2023-05-07T11:48:19;18.38;;;13.13;;
75135;SDS011;63707;52.212;9.540;2023-05-07T11:50:50;17.48;;;12.65;;
75135;SDS011;63707;52.212;9.540;2023-05-07T11:53:17;19.33;;;13.85;;
75135;SDS011;63707;52.212;9.540;2023-05-07T11:55:43;18.77;;;12.80;;
75135;SDS011;63707;52.212;9.540;2023-05-07T11:58:10;17.75;;;13.02;;
75135;SDS011;63707;52.212;9.540;2023-05-07T12:00:37;16.50;;;12.60;;
75135;SDS011;63707;52.212;9.540;2023-05-07T12:03:03;16.98;;;12.82;;
75135;SDS011;63707;52.212;9.540;2023-05-07T12:05:30;18.00;;;13.00;;
75135;SDS011;63707;52.212;9.540;2023-05-07T12:07:56;19.05;;;14.00;;
75135;SDS011;63707;52.212;9.540;2023-05-07T12:10:22;17.25;;;13.18;;
75135;SDS011;63707;52.212;9.540;2023-05-07T12:12:47;18.52;;;12.82;;
75135;SDS011;63707;52.212;9.540;2023-05-07T12:15:15;19.48;;;13.15;;
75135;SDS011;63707;52.212;9.540;2023-05-07T12:17:41;20.75;;;12.82;;
75135;SDS011;63707;52.212;9.540;2023-05-07T12:20:07;17.02;;;13.10;;
75135;SDS011;63707;52.212;9.540;2023-05-07T12:22:34;15.95;;;12.68;;
75135;SDS011;63707;52.212;9.540;2023-05-07T12:25:00;17.13;;;11.80;;
75135;SDS011;63707;52.212;9.540;2023-05-07T12:27:27;16.02;;;12.32;;
75135;SDS011;63707;52.212;9.540;2023-05-07T12:29:52;17.25;;;12.30;;
75135;SDS011;63707;52.212;9.540;2023-05-07T12:32:19;16.55;;;11.93;;
75135;SDS011;63707;52.212;9.540;2023-05-07T12:34:46;15.48;;;12.18;;
75135;SDS011;63707;52.212;9.540;2023-05-07T12:37:14;15.90;;;12.32;;
75135;SDS011;63707;52.212;9.540;2023-05-07T12:39:46;16.48;;;11.93;;
75135;SDS011;63707;52.212;9.540;2023-05-07T12:42:14;15.35;;;11.68;;
75135;SDS011;63707;52.212;9.540;2023-05-07T12:44:43;15.23;;;12.10;;
75135;SDS011;63707;52.212;9.540;2023-05-07T12:47:11;15.88;;;11.40;;
75135;SDS011;63707;52.212;9.540;2023-05-07T12:49:37;13.13;;;10.68;;
75135;SDS011;63707;52.212;9.540;2023-05-07T12:52:03;13.35;;;10.85;;
75135;SDS011;63707;52.212;9.540;2023-05-07T12:54:30;15.50;;;11.02;;
75135;SDS011;63707;52.212;9.540;2023-05-07T12:57:04;15.27;;;10.73;;
75135;SDS011;63707;52.212;9.540;2023-05-07T12:59:32;12.32;;;9.85;;
75135;SDS011;63707;52.212;9.540;2023-05-07T13:01:58;14.10;;;9.63;;
75135;SDS011;63707;52.212;9.540;2023-05-07T13:04:24;14.07;;;9.77;;
75135;SDS011;63707;52.212;9.540;2023-05-07T13:06:49;14.90;;;9.50;;
75135;SDS011;63707;52.212;9.540;2023-05-07T13:09:15;18.83;;;10.13;;
75135;SDS011;63707;52.212;9.540;2023-05-07T13:11:40;14.40;;;9.02;;
75135;SDS011;63707;52.212;9.540;2023-05-07T13:14:07;12.52;;;9.18;;
75135;SDS011;63707;52.212;9.540;2023-05-07T13:16:33;13.20;;;8.68;;
75135;SDS011;63707;52.212;9.540;2023-05-07T13:18:58;15.88;;;9.30;;
75135;SDS011;63707;52.212;9.540;2023-05-07T13:21:24;11.13;;;8.65;;
75135;SDS011;63707;52.212;9.540;2023-05-07T13:23:49;10.10;;;8.85;;
75135;SDS011;63707;52.212;9.540;2023-05-07T13:26:15;10.73;;;8.95;;
75135;SDS011;63707;52.212;9.540;2023-05-07T13:28:40;10.00;;;8.70;;
75135;SDS011;63707;52.212;9.540;2023-05-07T13:31:08;10.75;;;8.75;;
75135;SDS011;63707;52.212;9.540;2023-05-07T13:33:33;11.23;;;8.85;;
75135;SDS011;63707;52.212;9.540;2023-05-07T13:35:59;11.10;;;8.75;;
75135;SDS011;63707;52.212;9.540;2023-05-07T13:38:25;10.52;;;9.40;;
75135;SDS011;63707;52.212;9.540;2023-05-07T13:40:51;11.73;;;9.52;;
75135;SDS011;63707;52.212;9.540;2023-05-07T13:43:16;11.57;;;9.88;;
75135;SDS011;63707;52.212;9.540;2023-05-07T13:45:43;13.05;;;10.45;;
75135;SDS011;63707;52.212;9.540;2023-05-07T13:48:10;14.95;;;10.85;;
75135;SDS011;63707;52.212;9.540;2023-05-07T13:50:36;14.57;;;10.00;;
75135;SDS011;63707;52.212;9.540;2023-05-07T13:53:01;14.88;;;11.00;;
75135;SDS011;63707;52.212;9.540;2023-05-07T13:55:28;11.93;;;10.27;;
75135;SDS011;63707;52.212;9.540;2023-05-07T13:57:54;13.07;;;10.32;;
75135;SDS011;63707;52.212;9.540;2023-05-07T14:00:21;14.90;;;12.02;;
75135;SDS011;63707;52.212;9.540;2023-05-07T14:02:46;13.70;;;11.70;;
75135;SDS011;63707;52.212;9.540;2023-05-07T14:05:13;13.23;;;11.50;;
75135;SDS011;63707;52.212;9.540;2023-05-07T14:07:39;13.35;;;11.65;;
75135;SDS011;63707;52.212;9.540;2023-05-07T14:10:05;14.43;;;11.52;;
75135;SDS011;63707;52.212;9.540;2023-05-07T14:12:31;13.00;;;11.23;;
75135;SDS011;63707;52.212;9.540;2023-05-07T14:14:56;16.55;;;11.50;;
75135;SDS011;63707;52.212;9.540;2023-05-07T14:17:22;14.82;;;12.07;;
75135;SDS011;63707;52.212;9.540;2023-05-07T14:19:50;14.10;;;11.70;;
75135;SDS011;63707;52.212;9.540;2023-05-07T14:22:17;15.95;;;11.07;;
75135;SDS011;63707;52.212;9.540;2023-05-07T14:24:42;11.85;;;10.60;;
75135;SDS011;63707;52.212;9.540;2023-05-07T14:27:08;12.23;;;10.38;;